createdAt,value
2022-09-04T00:01:26.488Z,32.55
2022-09-04T00:04:01.994Z,35.38
2022-09-04T00:06:33.965Z,37.35
2022-09-04T00:09:09.522Z,39.20
2022-09-04T00:11:44.978Z,38.00
2022-09-04T00:14:18.844Z,42.85
2022-09-04T00:16:55.010Z,38.90
2022-09-04T00:19:28.965Z,41.20
2022-09-04T00:22:00.743Z,44.03
2022-09-04T00:24:33.395Z,41.33
2022-09-04T00:27:08.660Z,42.25
2022-09-04T00:29:44.595Z,40.25
2022-09-04T00:32:21.048Z,39.92
2022-09-04T00:35:06.626Z,41.15
2022-09-04T00:37:38.360Z,39.40
2022-09-04T00:40:11.498Z,40.90
2022-09-04T00:42:55.865Z,45.53
2022-09-04T00:45:37.846Z,43.83
2022-09-04T00:48:37.411Z,42.63
2022-09-04T00:51:21.091Z,42.47
2022-09-04T00:54:33.677Z,38.10
2022-09-04T00:57:21.096Z,39.13
2022-09-04T01:00:03.712Z,40.58
2022-09-04T01:02:44.640Z,37.70
2022-09-04T01:05:24.118Z,41.35
2022-09-04T01:08:08.095Z,40.33
2022-09-04T01:10:45.231Z,39.58
2022-09-04T01:13:19.872Z,43.63
2022-09-04T01:15:53.511Z,38.15
2022-09-04T01:18:28.202Z,38.28
2022-09-04T01:21:40.810Z,35.97
2022-09-04T01:24:40.086Z,34.58
2022-09-04T01:27:17.022Z,40.55
2022-09-04T01:29:53.812Z,41.17
2022-09-04T01:32:31.522Z,41.22
2022-09-04T01:35:07.060Z,42.47
2022-09-04T01:37:47.549Z,44.20
2022-09-04T01:40:39.776Z,38.30
2022-09-04T01:43:12.534Z,43.30
2022-09-04T01:46:10.607Z,45.70
2022-09-04T01:48:46.349Z,44.38
2022-09-04T01:51:23.095Z,42.70
2022-09-04T01:54:01.568Z,42.17
2022-09-04T01:56:36.753Z,41.30
2022-09-04T01:59:12.822Z,45.58
2022-09-04T02:01:48.410Z,41.47
2022-09-04T02:04:23.192Z,43.28
2022-09-04T02:07:02.400Z,40.40
2022-09-04T02:09:38.381Z,40.97
2022-09-04T02:12:20.977Z,41.20
2022-09-04T02:15:00.691Z,44.08
2022-09-04T02:17:38.585Z,42.13
2022-09-04T02:20:18.241Z,43.53
2022-09-04T02:22:55.743Z,41.20
2022-09-04T02:25:31.579Z,41.97
2022-09-04T02:28:15.363Z,47.13
2022-09-04T02:30:54.303Z,43.45
2022-09-04T02:33:30.083Z,44.35
2022-09-04T02:36:03.822Z,42.83
2022-09-04T02:38:39.650Z,41.10
2022-09-04T02:41:17.408Z,42.80
2022-09-04T02:43:59.125Z,42.10
2022-09-04T02:46:34.613Z,44.72
2022-09-04T02:49:13.227Z,41.35
2022-09-04T02:51:54.325Z,43.15
2022-09-04T02:54:40.318Z,43.58
2022-09-04T02:57:17.597Z,44.33
2022-09-04T02:59:59.661Z,40.60
2022-09-04T03:02:34.057Z,43.75
2022-09-04T03:05:09.597Z,44.47
2022-09-04T03:07:42.180Z,42.95
2022-09-04T03:10:16.560Z,51.03
2022-09-04T03:12:51.647Z,48.45
2022-09-04T03:15:28.326Z,43.95
2022-09-04T03:18:06.005Z,44.40
2022-09-04T03:20:42.212Z,42.00
2022-09-04T03:23:16.819Z,45.13
2022-09-04T03:25:54.488Z,44.42
2022-09-04T03:28:33.109Z,42.42
2022-09-04T03:31:19.695Z,44.60
2022-09-04T03:33:58.143Z,40.72
2022-09-04T03:36:40.198Z,42.00
2022-09-04T03:39:14.753Z,43.05
2022-09-04T03:41:50.823Z,47.53
2022-09-04T03:44:28.638Z,43.63
2022-09-04T03:47:06.694Z,49.22
2022-09-04T03:49:46.168Z,41.60
2022-09-04T03:52:24.093Z,42.10
2022-09-04T03:55:07.056Z,45.15
2022-09-04T03:58:04.190Z,38.63
2022-09-04T04:00:43.056Z,43.30
2022-09-04T04:03:34.782Z,40.15
2022-09-04T04:06:14.856Z,40.13
2022-09-04T04:09:11.865Z,41.67
2022-09-04T04:11:55.625Z,39.83
2022-09-04T04:14:51.449Z,42.13
2022-09-04T04:17:44.740Z,39.90
2022-09-04T04:20:27.183Z,40.22
2022-09-04T04:23:25.584Z,39.97
2022-09-04T04:26:08.791Z,43.05
2022-09-04T04:29:03.650Z,43.92
2022-09-04T04:31:46.269Z,42.88
2022-09-04T04:34:24.477Z,39.38
2022-09-04T04:36:59.880Z,42.67
2022-09-04T04:39:36.720Z,41.65
2022-09-04T04:42:15.374Z,41.80
2022-09-04T04:45:21.146Z,42.13
2022-09-04T04:48:24.216Z,41.10
2022-09-04T04:50:59.586Z,40.45
2022-09-04T04:53:32.771Z,43.33
2022-09-04T04:56:15.425Z,38.92
2022-09-04T04:58:59.485Z,37.53
2022-09-04T05:01:42.449Z,40.22
2022-09-04T05:04:21.347Z,39.85
2022-09-04T05:06:55.865Z,39.90
2022-09-04T05:09:33.728Z,41.67
2022-09-04T05:12:13.930Z,38.83
2022-09-04T05:14:50.216Z,39.97
2022-09-04T05:17:32.888Z,41.05
2022-09-04T05:20:22.746Z,41.35
2022-09-04T05:22:57.875Z,39.95
2022-09-04T05:25:36.404Z,38.58
2022-09-04T05:28:21.670Z,41.60
2022-09-04T05:30:57.437Z,41.75
2022-09-04T05:33:35.560Z,40.75
2022-09-04T05:36:13.455Z,40.53
2022-09-04T05:38:51.285Z,43.22
2022-09-04T05:41:35.684Z,38.28
2022-09-04T05:44:21.495Z,39.33
2022-09-04T05:47:00.572Z,42.83
2022-09-04T05:49:45.677Z,39.88
2022-09-04T05:52:36.155Z,39.95
2022-09-04T05:55:32.412Z,39.50
2022-09-04T05:58:31.930Z,39.53
2022-09-04T06:01:13.649Z,41.70
2022-09-04T06:04:07.388Z,41.00
2022-09-04T06:06:43.649Z,41.42
2022-09-04T06:09:25.208Z,41.92
2022-09-04T06:12:26.069Z,41.33
2022-09-04T06:15:22.853Z,41.28
2022-09-04T06:18:12.211Z,41.03
2022-09-04T06:20:55.537Z,42.38
2022-09-04T06:23:56.965Z,41.22
2022-09-04T06:27:01.563Z,39.60
2022-09-04T06:29:44.017Z,41.80
2022-09-04T06:32:40.271Z,40.47
2022-09-04T06:35:29.331Z,42.25
2022-09-04T06:38:19.391Z,40.72
2022-09-04T06:40:59.621Z,44.53
2022-09-04T06:43:38.023Z,47.22
2022-09-04T06:46:20.016Z,45.92
2022-09-04T06:48:58.520Z,46.65
2022-09-04T06:51:44.154Z,49.25
2022-09-04T06:54:19.861Z,51.10
2022-09-04T06:57:14.969Z,52.05
2022-09-04T07:00:06.293Z,51.97
2022-09-04T07:02:50.262Z,51.83
2022-09-04T07:05:26.434Z,53.83
2022-09-04T07:08:08.948Z,53.90
2022-09-04T07:10:41.128Z,53.10
2022-09-04T07:13:33.969Z,52.05
2022-09-04T07:16:35.301Z,55.35
2022-09-04T07:19:20.324Z,53.05
2022-09-04T07:22:03.879Z,53.28
2022-09-04T07:24:48.235Z,54.47
2022-09-04T07:27:22.009Z,54.00
2022-09-04T07:29:58.656Z,55.65
2022-09-04T07:32:34.810Z,51.20
2022-09-04T07:35:11.676Z,53.50
2022-09-04T07:37:50.151Z,58.22
2022-09-04T07:40:23.585Z,58.22
2022-09-04T07:43:06.005Z,61.03
2022-09-04T07:45:38.493Z,65.43
2022-09-04T07:48:19.026Z,66.93
2022-09-04T07:51:04.890Z,67.80
2022-09-04T07:54:05.049Z,70.32
2022-09-04T07:56:54.616Z,65.50
2022-09-04T07:59:47.492Z,67.78
2022-09-04T08:02:35.399Z,66.53
2022-09-04T08:05:20.875Z,64.15
2022-09-04T08:08:04.736Z,69.18
2022-09-04T08:10:42.469Z,71.20
2022-09-04T08:13:28.320Z,69.78
2022-09-04T08:16:07.706Z,69.53
2022-09-04T08:18:55.322Z,69.60
2022-09-04T08:21:29.842Z,69.35
2022-09-04T08:24:33.006Z,72.80
2022-09-04T08:27:20.876Z,67.93
2022-09-04T08:30:04.302Z,70.13
2022-09-04T08:33:10.221Z,74.07
2022-09-04T08:35:45.890Z,72.90
2022-09-04T08:38:25.527Z,76.00
2022-09-04T08:41:29.027Z,80.88
2022-09-04T08:44:39.952Z,69.22
2022-09-04T08:48:02.095Z,69.82
2022-09-04T08:51:05.219Z,71.10
2022-09-04T08:54:04.468Z,67.03
2022-09-04T08:56:40.967Z,74.43
2022-09-04T08:59:42.653Z,73.65
2022-09-04T09:02:40.695Z,76.15
2022-09-04T09:05:30.891Z,77.97
2022-09-04T09:08:33.204Z,78.05
2022-09-04T09:11:30.288Z,75.07
2022-09-04T09:14:28.974Z,75.32
2022-09-04T09:17:13.119Z,72.30
2022-09-04T09:19:51.744Z,71.15
2022-09-04T09:22:39.111Z,69.15
2022-09-04T09:25:20.908Z,66.40
2022-09-04T09:28:16.076Z,70.25
2022-09-04T09:31:18.402Z,68.18
2022-09-04T09:34:11.668Z,65.65
2022-09-04T09:37:14.638Z,63.05
2022-09-04T09:40:05.040Z,63.28
2022-09-04T09:43:04.973Z,64.15
2022-09-04T09:45:50.578Z,59.28
2022-09-04T09:48:51.011Z,59.28
2022-09-04T09:51:57.185Z,62.83
2022-09-04T09:54:59.282Z,59.38
2022-09-04T10:01:04.318Z,51.22
2022-09-04T10:04:11.949Z,48.67
2022-09-04T10:07:04.338Z,44.63
2022-09-04T10:10:09.349Z,40.65
2022-09-04T10:13:06.014Z,33.08
2022-09-04T10:16:12.038Z,26.00
2022-09-04T10:19:29.323Z,24.20
2022-09-04T10:22:15.914Z,26.10
2022-09-04T10:25:10.874Z,21.95
2022-09-04T10:28:04.085Z,25.70
2022-09-04T10:30:42.703Z,25.98
2022-09-04T10:33:32.917Z,25.95
2022-09-04T10:36:13.923Z,26.63
2022-09-04T10:39:03.008Z,21.55
2022-09-04T10:41:54.364Z,24.73
2022-09-04T10:44:44.730Z,21.52
2022-09-04T10:47:28.137Z,19.92
2022-09-04T10:50:12.819Z,17.48
2022-09-04T10:53:07.878Z,20.02
2022-09-04T10:55:59.832Z,21.02
2022-09-04T10:58:48.896Z,19.52
2022-09-04T11:01:41.775Z,22.45
2022-09-04T11:04:28.405Z,13.25
2022-09-04T11:07:19.041Z,14.25
2022-09-04T11:10:27.356Z,15.52
2022-09-04T11:13:25.345Z,18.50
2022-09-04T11:16:22.951Z,17.02
2022-09-04T11:19:21.041Z,19.08
2022-09-04T11:22:20.549Z,15.23
2022-09-04T11:25:25.125Z,11.27
2022-09-04T11:28:16.016Z,8.90
2022-09-04T11:31:00.210Z,11.00
2022-09-04T11:34:09.722Z,6.90
2022-09-04T11:37:10.010Z,10.93
2022-09-04T11:40:28.238Z,11.20
2022-09-04T11:43:18.746Z,7.50
2022-09-04T11:46:13.100Z,11.02
2022-09-04T11:49:07.962Z,9.88
2022-09-04T11:52:04.020Z,9.80
2022-09-04T11:55:02.438Z,9.88
2022-09-04T11:57:41.704Z,9.55
2022-09-04T12:00:12.924Z,9.68
2022-09-04T12:03:12.949Z,14.20
2022-09-04T12:06:04.611Z,12.02
2022-09-04T12:09:05.817Z,7.35
2022-09-04T12:12:03.830Z,7.53
2022-09-04T12:14:51.061Z,11.50
2022-09-04T12:17:48.365Z,11.15
2022-09-04T12:20:49.630Z,9.40
2022-09-04T12:23:50.437Z,10.13
2022-09-04T12:26:51.211Z,11.68
2022-09-04T12:29:34.215Z,11.00
2022-09-04T12:32:37.460Z,11.27
2022-09-04T12:35:33.729Z,10.88
2022-09-04T12:38:26.469Z,9.00
2022-09-04T12:41:03.365Z,10.45
2022-09-04T12:43:45.285Z,9.15
2022-09-04T12:46:36.411Z,11.15
2022-09-04T12:49:24.513Z,11.02
2022-09-04T12:52:00.896Z,8.88
2022-09-04T12:54:37.281Z,9.98
2022-09-04T12:57:18.769Z,8.35
2022-09-04T13:00:00.989Z,10.20
2022-09-04T13:02:40.389Z,10.98
2022-09-04T13:05:52.702Z,11.13
2022-09-04T13:08:33.112Z,9.52
2022-09-04T13:11:09.763Z,10.77
2022-09-04T13:13:49.011Z,11.40
2022-09-04T13:16:22.866Z,12.85
2022-09-04T13:19:02.445Z,13.10
2022-09-04T13:21:50.057Z,14.30
2022-09-04T13:24:35.849Z,11.30
2022-09-04T13:27:16.448Z,10.27
2022-09-04T13:30:03.086Z,9.25
2022-09-04T13:32:50.923Z,9.75
2022-09-04T13:35:28.109Z,11.20
2022-09-04T13:38:16.191Z,12.13
2022-09-04T13:41:18.212Z,12.00
2022-09-04T13:44:09.537Z,12.57
2022-09-04T13:46:42.165Z,11.68
2022-09-04T13:49:14.817Z,8.82
2022-09-04T13:51:49.415Z,9.35
2022-09-04T13:54:24.815Z,9.27
2022-09-04T13:57:04.285Z,10.82
2022-09-04T13:59:33.136Z,8.93
2022-09-04T14:02:12.458Z,9.90
2022-09-04T14:04:44.546Z,8.70
2022-09-04T14:07:19.255Z,8.15
2022-09-04T14:09:52.575Z,8.82
2022-09-04T14:12:39.513Z,6.90
2022-09-04T14:15:51.582Z,9.40
2022-09-04T14:18:45.228Z,9.23
2022-09-04T14:21:24.263Z,8.25
2022-09-04T14:24:03.256Z,9.15
2022-09-04T14:26:39.929Z,7.78
2022-09-04T14:29:22.759Z,8.80
2022-09-04T14:32:04.552Z,9.48
2022-09-04T14:34:41.877Z,9.30
2022-09-04T14:37:26.288Z,10.27
2022-09-04T14:39:59.387Z,7.93
2022-09-04T14:42:42.672Z,8.18
2022-09-04T14:45:30.874Z,12.07
2022-09-04T14:48:03.682Z,9.73
2022-09-04T14:50:35.189Z,9.10
2022-09-04T14:53:05.984Z,9.85
2022-09-04T14:55:41.180Z,7.90
2022-09-04T14:58:19.505Z,9.30
2022-09-04T15:00:59.571Z,7.85
2022-09-04T15:03:32.192Z,9.40
2022-09-04T15:06:07.344Z,7.82
2022-09-04T15:08:40.650Z,9.07
2022-09-04T15:11:13.172Z,8.52
2022-09-04T15:13:52.956Z,8.25
2022-09-04T15:16:30.478Z,6.55
2022-09-04T15:19:08.539Z,7.88
2022-09-04T15:21:45.775Z,4.38
2022-09-04T15:24:21.205Z,5.93
2022-09-04T15:26:57.423Z,9.00
2022-09-04T15:29:32.115Z,7.22
2022-09-04T15:32:01.997Z,6.47
2022-09-04T15:34:32.191Z,5.55
2022-09-04T15:37:16.459Z,7.82
2022-09-04T15:39:55.511Z,6.07
2022-09-04T15:42:40.802Z,8.98
2022-09-04T15:45:20.859Z,4.30
2022-09-04T15:48:15.149Z,5.63
2022-09-04T15:50:57.537Z,4.00
2022-09-04T15:53:29.473Z,5.40
2022-09-04T15:56:10.652Z,4.57
2022-09-04T15:58:53.529Z,6.25
2022-09-04T16:01:26.822Z,4.10
2022-09-04T16:04:07.482Z,3.47
2022-09-04T16:06:43.706Z,4.85
2022-09-04T16:09:22.360Z,4.65
2022-09-04T16:12:02.545Z,7.80
2022-09-04T16:14:35.277Z,6.40
2022-09-04T16:17:17.441Z,5.65
2022-09-04T16:19:53.513Z,5.93
2022-09-04T16:22:35.003Z,3.55
2022-09-04T16:25:11.534Z,16.27
2022-09-04T16:27:46.606Z,16.63
2022-09-04T16:30:35.464Z,14.35
2022-09-04T16:33:20.464Z,14.23
2022-09-04T16:36:01.420Z,10.82
2022-09-04T16:38:33.354Z,10.43
2022-09-04T16:41:06.187Z,4.93
2022-09-04T16:43:35.413Z,5.13
2022-09-04T16:46:10.599Z,6.88
2022-09-04T16:48:48.149Z,3.50
2022-09-04T16:51:40.562Z,7.85
2022-09-04T16:54:13.451Z,3.42
2022-09-04T16:56:45.536Z,3.15
2022-09-04T16:59:23.674Z,4.47
2022-09-04T17:02:00.461Z,6.80
2022-09-04T17:04:39.733Z,4.45
2022-09-04T17:07:16.117Z,8.15
2022-09-04T17:09:56.763Z,4.30
2022-09-04T17:12:38.977Z,4.43
2022-09-04T17:15:17.535Z,4.15
2022-09-04T17:17:51.135Z,4.80
2022-09-04T17:21:01.675Z,8.60
2022-09-04T17:29:00.942Z,3.90
2022-09-04T17:29:14.873Z,3.25
2022-09-04T17:29:34.982Z,4.55
2022-09-04T17:32:03.495Z,5.43
2022-09-04T17:40:42.385Z,5.18
2022-09-04T17:40:47.773Z,4.13
2022-09-04T17:41:33.352Z,2.40
2022-09-04T17:44:04.817Z,2.60
2022-09-04T17:46:36.822Z,2.55
2022-09-04T17:49:16.965Z,3.63
2022-09-04T17:51:51.460Z,2.85
2022-09-04T17:54:34.929Z,3.20
2022-09-04T17:57:10.456Z,3.03
2022-09-04T17:59:45.675Z,5.32
2022-09-04T18:02:21.818Z,3.90
2022-09-04T18:05:00.546Z,3.30
2022-09-04T18:08:08.326Z,6.07
2022-09-04T18:10:31.441Z,4.10
2022-09-04T18:13:08.997Z,6.65
2022-09-04T18:16:07.594Z,3.95
2022-09-04T18:18:40.012Z,2.58
2022-09-04T18:21:14.464Z,2.92
2022-09-04T18:23:58.540Z,5.07
2022-09-04T18:26:41.132Z,3.70
2022-09-04T18:31:49.558Z,4.68
2022-09-04T18:37:07.259Z,5.07
2022-09-04T18:37:25.487Z,6.97
2022-09-04T18:38:46.498Z,5.30
2022-09-04T18:47:51.945Z,4.25
2022-09-04T18:50:26.066Z,4.57
2022-09-04T18:50:30.451Z,3.33
2022-09-04T18:50:45.369Z,3.40
2022-09-04T18:53:07.129Z,5.78
2022-09-04T18:55:44.173Z,5.25
2022-09-04T18:58:42.437Z,5.63
2022-09-04T19:01:27.318Z,7.45
2022-09-04T19:04:01.889Z,8.30
2022-09-04T19:06:55.779Z,6.50
2022-09-04T19:09:55.709Z,4.97
2022-09-04T19:12:35.796Z,4.30
2022-09-04T19:15:36.789Z,4.80
2022-09-04T19:18:15.690Z,6.07
2022-09-04T19:20:49.961Z,3.97
2022-09-04T19:23:27.091Z,6.53
2022-09-04T19:26:00.703Z,7.75
2022-09-04T19:28:45.709Z,6.55
2022-09-04T19:31:30.369Z,5.63
2022-09-04T19:34:04.419Z,7.20
2022-09-04T19:36:42.803Z,5.82
2022-09-04T19:45:59.278Z,4.90
2022-09-04T19:46:05.542Z,8.93
2022-09-04T19:46:19.140Z,8.05
2022-09-04T19:48:22.693Z,7.90
2022-09-04T19:53:24.262Z,10.48
2022-09-04T19:54:00.263Z,9.20
2022-09-04T19:56:35.311Z,6.97
2022-09-04T19:59:27.047Z,11.57
2022-09-04T20:02:03.047Z,8.75
2022-09-04T20:04:38.613Z,7.75
2022-09-04T20:07:20.371Z,9.40
2022-09-04T20:09:52.634Z,5.20
2022-09-04T20:12:27.670Z,7.45
2022-09-04T20:15:04.132Z,6.50
2022-09-04T20:18:08.376Z,9.15
2022-09-04T20:20:46.329Z,12.95
2022-09-04T20:23:51.881Z,10.23
2022-09-04T20:26:17.827Z,17.80
2022-09-04T20:28:55.924Z,24.98
2022-09-04T20:31:36.215Z,33.08
2022-09-04T20:34:16.570Z,38.33
2022-09-04T20:36:49.368Z,29.90
2022-09-04T20:39:24.596Z,36.45
2022-09-04T20:41:58.075Z,35.75
2022-09-04T20:44:33.098Z,32.70
2022-09-04T20:52:42.528Z,38.80
2022-09-04T20:52:56.058Z,42.17
2022-09-04T20:53:24.364Z,44.10
2022-09-04T20:56:07.832Z,44.00
2022-09-04T21:03:14.259Z,44.22
2022-09-04T21:03:17.611Z,47.60
2022-09-04T21:04:54.225Z,42.40
2022-09-04T21:07:31.050Z,48.95
2022-09-04T21:10:10.211Z,47.85
2022-09-04T21:12:47.082Z,49.53
2022-09-04T21:15:26.047Z,49.88
2022-09-04T21:18:18.111Z,49.00
2022-09-04T21:21:02.755Z,48.20
2022-09-04T21:24:03.656Z,54.88
2022-09-04T21:26:53.935Z,56.88
2022-09-04T21:29:52.628Z,52.53
2022-09-04T21:32:32.062Z,48.85
2022-09-04T21:35:08.445Z,49.38
2022-09-04T21:37:46.146Z,46.67
2022-09-04T21:40:50.174Z,47.83
2022-09-04T21:43:37.978Z,44.75
2022-09-04T21:46:28.782Z,47.70
2022-09-04T21:49:13.446Z,42.58
2022-09-04T21:52:12.036Z,48.42
2022-09-04T22:00:00.710Z,50.47
2022-09-04T22:02:36.187Z,45.90
2022-09-04T22:02:41.531Z,48.13
2022-09-04T22:04:21.107Z,44.53
2022-09-04T22:08:52.921Z,44.97
2022-09-04T22:13:29.476Z,46.58
2022-09-04T22:13:38.523Z,49.78
2022-09-04T22:16:05.938Z,47.40
2022-09-04T22:19:19.021Z,46.28
2022-09-04T22:22:03.167Z,44.85
2022-09-04T22:25:06.228Z,45.72
2022-09-04T22:28:08.773Z,45.85
2022-09-04T22:30:55.806Z,44.85
2022-09-04T22:34:16.785Z,43.55
2022-09-04T22:37:07.847Z,43.22
2022-09-04T22:40:01.118Z,43.05
2022-09-04T22:42:41.664Z,41.30
2022-09-04T22:45:36.223Z,39.53
2022-09-04T22:48:27.810Z,40.80
2022-09-04T22:51:13.918Z,41.10
2022-09-04T22:54:06.961Z,39.47
2022-09-04T22:56:52.918Z,39.30
2022-09-04T22:59:43.589Z,36.85
2022-09-04T23:03:08.266Z,37.17
2022-09-04T23:07:45.706Z,32.03
2022-09-04T23:13:54.846Z,27.08
2022-09-04T23:13:56.901Z,20.85
2022-09-04T23:15:47.414Z,14.65
2022-09-04T23:22:03.902Z,10.48
2022-09-04T23:26:37.041Z,12.45
2022-09-04T23:26:42.365Z,17.40
2022-09-04T23:27:44.145Z,10.98
2022-09-04T23:30:25.487Z,11.00
2022-09-04T23:33:38.041Z,9.52
2022-09-04T23:36:48.863Z,8.02
2022-09-04T23:40:01.879Z,8.63
2022-09-04T23:42:50.728Z,7.20
2022-09-04T23:45:52.810Z,9.85
2022-09-04T23:48:52.031Z,8.25
2022-09-04T23:51:30.146Z,10.27
2022-09-04T23:54:24.845Z,8.93
2022-09-04T23:57:00.867Z,12.60
2022-09-04T23:59:45.042Z,8.65
